Butler, PA (16001)

6:02 AM EST on February 08, 2016 (GMT -0500)
Clearview Mall Vicinity | | Change Station
CLOSE
Current Station
Personal Weather Station
Location: Butler, PA
Elevation: 1265 ft
Nearby Weather Stations

Elev 1265 ft 40.89 °N, 79.90 °W | Updated 27 seconds ago

Mostly Cloudy
Mostly Cloudy
30.0 °F
Feels Like 30 °F
N
2.3
Wind Variable Wind from East
Gusts 2.3 mph

Today
High -- | Low -- °F
--% Chance of Precip.
Yesterday
High -- | Low -- °F
Precip. -- in
Pressure 29.72 in
Visibility 10.0 miles
Clouds Few 12000 ft
Windchill 30 °F
Dew Point 21 °F
Humidity 69%
Rainfall 0.00 in
Snow Depth Not available.
7:22 AM 5:44 PM
Waning Crescent, 0% visible
METAR KBTP 081055Z AUTO 14005KT 10SM FEW120 01/M06 A2972 RMK AO1
Pressure 29.72 in
Visibility 10.0 miles
Clouds Few 12000 ft
Windchill 30 °F
Dew Point 21 °F
Humidity 69%
Rainfall 0.00 in
Snow Depth Not available.
7:22 AM 5:44 PM
Waning Crescent, 0% visible
METAR KBTP 081055Z AUTO 14005KT 10SM FEW120 01/M06 A2972 RMK AO1

10-Day Weather Forecast

Almanac

Astronomy

Feb. 08, 2016 Rise Set
Actual Time
Civil Twilight
Nautical Twilight
Astronomical Twilight
Moon
Length of Visible Light
Length of Day
Tomorrow will be .
, % of the Moon is Illuminated

Today's Extremes

State Highs State Lows

Community

WunderPhotos

Upload Photos

1,891,420 photos uploaded!

WunderBlog® & News

Nearby

Air Quality

  Air Quality AQ Index Pollutant
Not available.

Snow Depth

Station Depth Elevation

Earthquake Activity

City Distance Mag. Time & Date
Minimum magnitude displayed is 2.5.

Coastal Water Temperatures

Place Temperature

Stations

Nearby Weather Stations

Station Location Temp. Windchill Dew Point Humidity Wind Precip. Elev Updated Type
                   

Watches & Warnings

There are currently no watches in effect.